Harrison, Arkansas
Current Conditions -  °F | °C
As of 4:53 AM on Saturday 25 Oct 2014 (Local Time) from KHRO Reporting Station
Haze Haze  
Wind Chill: 65°   Ceiling: Unl
Heat Index: 65°   Visibility: 6mi
Dew Point: 60°   Wind: 6mph
Humidity: 84%   Direction: 280°W
Pressure: 30.08"   Gusts: NA
Location:  36.23°N, 93.11°W
Report Text: KHRO 250953Z AUTO 28005KT 6SM HZ CLR 18/16 A3008 RMK AO2 SLP174 T01830156
Loading
Personal Weather Stations






























Interactive Weather Map New forecast layout! Learn more

10-Day Weather Forecast

Advertisements
Track Severe Weather on mobile